Angie, LA (70467)

10:37 PM CDT on June 29, 2015 (GMT -0500)
Grand Coteau Observatory | | Change Station
CLOSE
Current Station
Personal Weather Station
Location: Poplarville, MS
Elevation: 243 ft
Nearby Weather Stations

Elev 243 ft 30.97 °N, 89.66 °W | Updated 1 minute ago

Partly Cloudy
Partly Cloudy
75.3 °F
Feels Like 74 °F
N
0.0
Wind Variable Wind from WSW
Gusts 0.0 mph

Today
High -- | Low -- °F
--% Chance of Precip.
Yesterday
High -- | Low -- °F
Precip. -- in
5:58 AM 8:06 PM
Waxing Gibbous, 95% visible
Pressure 29.99 in
Visibility 10.0 miles
Clouds Clear
Heat Index 74 °F
Dew Point 73 °F
Humidity 93%
Rainfall in
Snow Depth Not available.
UV 0.0 out of 12
Pollen 3.10 out of 12
Air Quality Not available.
Flu Activity Sporadic
METAR KHBG 300253Z AUTO 16003KT 10SM CLR 26/23 A2999 RMK AO2 SLP154 T02560233 53004

More Conditions Fewer Conditions

Pressure 29.99 in
Visibility 10.0 miles
Clouds Clear
Heat Index 74 °F
Dew Point 73 °F
Humidity 93%
Rainfall in
Snow Depth Not available.
UV 0.0 out of 12
Pollen 3.10 out of 12
Air Quality Not available.
Flu Activity Sporadic
METAR KHBG 300253Z AUTO 16003KT 10SM CLR 26/23 A2999 RMK AO2 SLP154 T02560233 53004

More Conditions Fewer Conditions

10-Day Weather Forecast

×

Almanac

Astronomy

Jun. 29, 2015 Rise Set
Actual Time
Civil Twilight
Nautical Twilight
Astronomical Twilight
Moon
Length of Visible Light
Length of Day
Tomorrow will be .
, % of the Moon is Illuminated

Today's Extremes

State Highs State Lows

Community

WunderPhotos

Upload Photos

1,833,955 photos uploaded!

WunderBlogs® & News

Nearby

Air Quality

  Air Quality AQ Index Pollutant
Not available.

Snow Depth

Station Depth Elevation

Earthquake Activity

City Distance Mag. Time & Date
Minimum magnitude displayed is 2.5.

Coastal Water Temperatures

Place Temperature

Stations

Nearby Weather Stations

Station Location Temp. Windchill Dew Point Humidity Wind Precip. Elev Updated Type